Aérodrome :
LOGIN :

S'inscrire | Disclaimer

   EN    FR    IT 

 










Légende :    VFR   VFR Marginal   IFR   IFR Intensif   IFR Très Intensif
Visi : 
Plafond : 
>= 8 km
>= 3000ft
5 à 8 km
1000 à 3000 ft
1500m à 5 km
500 à 1000 ft
800 à 1500m
200 à 500 ft
< 800m
< 200 ft
Symboles :   Orages  Brouillard  Fortes neiges  Fortes précipitations  Vent > 20 kt
SIGMETs :   Divers  Orages  Givrage  Turbulence  Onde Orograph.  Cendres Volcan.






- Altitude de l'aérodrome : 353 ft
- Code IATA : ZAG


LDZA - Zagreb Pleso

DERNIER METAR :
  • 271400Z 23010KT 170V270 CAVOK 11/M06 Q1008 BECMG 22015KT

METARs EXPIRÉS :
  • 271330Z 25008KT 160V270 CAVOK 10/M05 Q1009 NOSIG
  • 271300Z 20010KT 160V260 CAVOK 10/M05 Q1009 NOSIG
  • 271230Z 21007KT 160V260 CAVOK 10/M04 Q1009 NOSIG
  • 271200Z 23009KT 180V270 9999 FEW045 10/M05 Q1010 NOSIG
  • 271130Z 22008KT 180V260 9999 FEW035 09/M02 Q1010 NOSIG

TAF TAF LDZA
Valide du 27 à 12h jusqu'au 28 à 12h UTC


271125Z 2712/2812 22008KT 9999 FEW025 TX10/2714Z TN03/2804Z
BECMG 2714/2716 22014KT
PROB30
TEMPO 2720/2804 23015G25KT
PROB40
TEMPO 2801/2805 34015G25KT 4000 TSRA FEW035CB BKN040
BECMG 2804/2806 30006KT
ATIS : +385 1 6-259-214



MET'MAP, la Météo Aéronautique d'un coup d'oeil ! - Copyright ORBIFLY Décembre 2007 - Disclaimer

ORBIFLY MET'MAP TEAM :

Programmation & Développement : Alexandra Zaïnal
Sur une idée originale de : Baudouin d'Aumeries
Assistance à la programmation : Marc-Olivier Méhu
Soutien technique & logistique : Manuel Goepfert

Contact : metmap@orbifly.com




SOURCES & CREDITS :

   NOAA